sensor_id;sensor_type;location;lat;lon;timestamp;pressure;altitude;pressure_sealevel;temperature;humidity
70133;BME280;57495;49.922;7.966;2024-02-21T00:01:22;100782.22;;;7.26;100.00
70133;BME280;57495;49.922;7.966;2024-02-21T00:03:23;100775.72;;;7.30;100.00
70133;BME280;57495;49.922;7.966;2024-02-21T00:05:25;100778.03;;;7.22;100.00
70133;BME280;57495;49.922;7.966;2024-02-21T00:07:26;100777.81;;;7.25;100.00
70133;BME280;57495;49.922;7.966;2024-02-21T00:09:29;100773.25;;;7.27;100.00
70133;BME280;57495;49.922;7.966;2024-02-21T00:11:30;100770.41;;;7.30;100.00
70133;BME280;57495;49.922;7.966;2024-02-21T00:13:31;100768.34;;;7.21;100.00
70133;BME280;57495;49.922;7.966;2024-02-21T00:15:32;100769.28;;;7.20;100.00
70133;BME280;57495;49.922;7.966;2024-02-21T00:17:34;100766.97;;;7.15;100.00
70133;BME280;57495;49.922;7.966;2024-02-21T00:19:35;100757.81;;;7.19;100.00
70133;BME280;57495;49.922;7.966;2024-02-21T00:21:37;100760.38;;;7.21;100.00
70133;BME280;57495;49.922;7.966;2024-02-21T00:23:37;100764.19;;;7.16;100.00
70133;BME280;57495;49.922;7.966;2024-02-21T00:25:40;100763.22;;;7.18;100.00
70133;BME280;57495;49.922;7.966;2024-02-21T00:27:41;100752.03;;;7.12;100.00
70133;BME280;57495;49.922;7.966;2024-02-21T00:29:43;100742.00;;;7.03;100.00
70133;BME280;57495;49.922;7.966;2024-02-21T00:31:44;100736.09;;;7.12;100.00
70133;BME280;57495;49.922;7.966;2024-02-21T00:33:45;100734.50;;;7.10;100.00
70133;BME280;57495;49.922;7.966;2024-02-21T00:35:47;100736.69;;;7.03;100.00
70133;BME280;57495;49.922;7.966;2024-02-21T00:37:48;100720.03;;;7.14;100.00
70133;BME280;57495;49.922;7.966;2024-02-21T00:39:50;100716.31;;;7.16;100.00
70133;BME280;57495;49.922;7.966;2024-02-21T00:41:52;100718.53;;;7.10;100.00
70133;BME280;57495;49.922;7.966;2024-02-21T00:43:54;100708.00;;;7.08;100.00
70133;BME280;57495;49.922;7.966;2024-02-21T00:45:56;100709.06;;;7.06;100.00
70133;BME280;57495;49.922;7.966;2024-02-21T00:47:56;100711.41;;;7.10;100.00
70133;BME280;57495;49.922;7.966;2024-02-21T00:49:58;100711.41;;;7.10;100.00
70133;BME280;57495;49.922;7.966;2024-02-21T00:51:58;100713.13;;;7.11;100.00
70133;BME280;57495;49.922;7.966;2024-02-21T00:53:59;100721.09;;;7.11;100.00
70133;BME280;57495;49.922;7.966;2024-02-21T00:56:01;100727.34;;;7.10;100.00
70133;BME280;57495;49.922;7.966;2024-02-21T00:58:04;100724.81;;;7.09;100.00
70133;BME280;57495;49.922;7.966;2024-02-21T01:00:07;100730.16;;;7.09;100.00
70133;BME280;57495;49.922;7.966;2024-02-21T01:02:09;100726.22;;;7.14;100.00
70133;BME280;57495;49.922;7.966;2024-02-21T01:04:10;100730.56;;;7.15;100.00
70133;BME280;57495;49.922;7.966;2024-02-21T01:06:11;100729.72;;;7.15;100.00
70133;BME280;57495;49.922;7.966;2024-02-21T01:08:13;100746.72;;;7.12;100.00
70133;BME280;57495;49.922;7.966;2024-02-21T01:10:14;100745.13;;;7.10;100.00
70133;BME280;57495;49.922;7.966;2024-02-21T01:12:15;100752.03;;;7.12;100.00
70133;BME280;57495;49.922;7.966;2024-02-21T01:14:18;100740.47;;;7.13;100.00
70133;BME280;57495;49.922;7.966;2024-02-21T01:16:19;100731.13;;;7.21;100.00
70133;BME280;57495;49.922;7.966;2024-02-21T01:18:20;100726.53;;;7.23;100.00
70133;BME280;57495;49.922;7.966;2024-02-21T01:20:22;100727.28;;;7.25;100.00
70133;BME280;57495;49.922;7.966;2024-02-21T01:22:22;100720.47;;;7.21;100.00
70133;BME280;57495;49.922;7.966;2024-02-21T01:24:24;100718.56;;;7.23;100.00
70133;BME280;57495;49.922;7.966;2024-02-21T01:26:24;100712.31;;;7.24;100.00
70133;BME280;57495;49.922;7.966;2024-02-21T01:28:25;100700.13;;;7.20;100.00
70133;BME280;57495;49.922;7.966;2024-02-21T01:30:28;100691.22;;;7.21;100.00
70133;BME280;57495;49.922;7.966;2024-02-21T01:32:30;100687.28;;;7.13;100.00
70133;BME280;57495;49.922;7.966;2024-02-21T01:34:31;100687.38;;;7.12;100.00
70133;BME280;57495;49.922;7.966;2024-02-21T01:36:33;100679.72;;;7.07;100.00
70133;BME280;57495;49.922;7.966;2024-02-21T01:38:34;100683.50;;;7.03;100.00
70133;BME280;57495;49.922;7.966;2024-02-21T01:40:35;100673.66;;;7.05;100.00
70133;BME280;57495;49.922;7.966;2024-02-21T01:42:38;100676.44;;;7.16;100.00
70133;BME280;57495;49.922;7.966;2024-02-21T01:44:39;100673.97;;;7.13;100.00
70133;BME280;57495;49.922;7.966;2024-02-21T01:46:43;100669.41;;;7.15;100.00
70133;BME280;57495;49.922;7.966;2024-02-21T01:48:45;100670.13;;;7.18;100.00
70133;BME280;57495;49.922;7.966;2024-02-21T01:50:47;100665.44;;;7.08;100.00
70133;BME280;57495;49.922;7.966;2024-02-21T01:52:50;100664.19;;;7.14;100.00
70133;BME280;57495;49.922;7.966;2024-02-21T01:54:51;100659.19;;;7.22;100.00
70133;BME280;57495;49.922;7.966;2024-02-21T01:56:53;100651.41;;;7.19;100.00
70133;BME280;57495;49.922;7.966;2024-02-21T01:58:55;100646.84;;;7.08;100.00
70133;BME280;57495;49.922;7.966;2024-02-21T02:00:56;100646.09;;;7.06;100.00
70133;BME280;57495;49.922;7.966;2024-02-21T02:02:59;100662.25;;;7.03;100.00
70133;BME280;57495;49.922;7.966;2024-02-21T02:05:01;100656.19;;;7.01;100.00
70133;BME280;57495;49.922;7.966;2024-02-21T02:07:04;100663.13;;;7.04;100.00
70133;BME280;57495;49.922;7.966;2024-02-21T02:09:06;100663.53;;;7.10;100.00
70133;BME280;57495;49.922;7.966;2024-02-21T02:11:08;100660.78;;;7.12;100.00
70133;BME280;57495;49.922;7.966;2024-02-21T02:13:10;100647.69;;;7.22;100.00
70133;BME280;57495;49.922;7.966;2024-02-21T02:15:11;100644.19;;;7.21;100.00
70133;BME280;57495;49.922;7.966;2024-02-21T02:17:13;100650.78;;;7.15;100.00
70133;BME280;57495;49.922;7.966;2024-02-21T02:19:16;100647.56;;;7.10;100.00
70133;BME280;57495;49.922;7.966;2024-02-21T02:21:23;100642.91;;;7.27;100.00
70133;BME280;57495;49.922;7.966;2024-02-21T02:23:30;100640.59;;;7.22;100.00
70133;BME280;57495;49.922;7.966;2024-02-21T02:25:31;100628.75;;;7.26;100.00
70133;BME280;57495;49.922;7.966;2024-02-21T02:27:33;100633.66;;;7.20;100.00
70133;BME280;57495;49.922;7.966;2024-02-21T02:29:41;100622.59;;;7.13;100.00
70133;BME280;57495;49.922;7.966;2024-02-21T02:31:42;100623.34;;;7.15;100.00
70133;BME280;57495;49.922;7.966;2024-02-21T02:33:44;100621.22;;;7.07;100.00
70133;BME280;57495;49.922;7.966;2024-02-21T02:35:45;100624.59;;;6.96;100.00
70133;BME280;57495;49.922;7.966;2024-02-21T02:37:48;100620.13;;;6.97;100.00
70133;BME280;57495;49.922;7.966;2024-02-21T02:39:51;100629.28;;;6.93;100.00
70133;BME280;57495;49.922;7.966;2024-02-21T02:41:53;100639.06;;;6.92;100.00
70133;BME280;57495;49.922;7.966;2024-02-21T02:43:54;100630.97;;;6.94;100.00
70133;BME280;57495;49.922;7.966;2024-02-21T02:45:55;100618.44;;;6.96;100.00
70133;BME280;57495;49.922;7.966;2024-02-21T02:47:57;100607.56;;;6.99;100.00
70133;BME280;57495;49.922;7.966;2024-02-21T02:49:58;100609.38;;;6.99;100.00
70133;BME280;57495;49.922;7.966;2024-02-21T02:51:59;100613.13;;;6.96;100.00
70133;BME280;57495;49.922;7.966;2024-02-21T02:54:00;100608.66;;;6.96;100.00
70133;BME280;57495;49.922;7.966;2024-02-21T02:56:03;100610.56;;;6.94;100.00
70133;BME280;57495;49.922;7.966;2024-02-21T02:58:05;100601.50;;;6.97;100.00
70133;BME280;57495;49.922;7.966;2024-02-21T03:00:07;100597.81;;;7.00;100.00
70133;BME280;57495;49.922;7.966;2024-02-21T03:02:09;100595.66;;;6.92;100.00
70133;BME280;57495;49.922;7.966;2024-02-21T03:04:10;100591.72;;;6.97;100.00
70133;BME280;57495;49.922;7.966;2024-02-21T03:06:11;100582.16;;;6.95;100.00
70133;BME280;57495;49.922;7.966;2024-02-21T03:08:12;100575.91;;;6.96;100.00
70133;BME280;57495;49.922;7.966;2024-02-21T03:10:14;100583.97;;;6.94;100.00
70133;BME280;57495;49.922;7.966;2024-02-21T03:12:17;100583.75;;;6.97;100.00
70133;BME280;57495;49.922;7.966;2024-02-21T03:14:24;100573.75;;;6.88;100.00
70133;BME280;57495;49.922;7.966;2024-02-21T03:16:25;100574.94;;;6.97;100.00
70133;BME280;57495;49.922;7.966;2024-02-21T03:18:27;100573.00;;;6.99;100.00
70133;BME280;57495;49.922;7.966;2024-02-21T03:20:28;100557.59;;;6.91;100.00
70133;BME280;57495;49.922;7.966;2024-02-21T03:22:30;100560.25;;;6.91;100.00
70133;BME280;57495;49.922;7.966;2024-02-21T03:24:31;100560.34;;;6.90;100.00
70133;BME280;57495;49.922;7.966;2024-02-21T03:26:32;100564.63;;;6.92;100.00
70133;BME280;57495;49.922;7.966;2024-02-21T03:28:35;100569.50;;;6.86;100.00
70133;BME280;57495;49.922;7.966;2024-02-21T03:30:36;100567.59;;;6.88;100.00
70133;BME280;57495;49.922;7.966;2024-02-21T03:32:38;100562.06;;;6.91;100.00
70133;BME280;57495;49.922;7.966;2024-02-21T03:34:40;100565.13;;;6.85;100.00
70133;BME280;57495;49.922;7.966;2024-02-21T03:36:41;100570.78;;;6.80;100.00
70133;BME280;57495;49.922;7.966;2024-02-21T03:38:42;100574.28;;;6.81;100.00
70133;BME280;57495;49.922;7.966;2024-02-21T03:40:43;100573.09;;;6.85;100.00
70133;BME280;57495;49.922;7.966;2024-02-21T03:42:44;100578.09;;;6.76;100.00
70133;BME280;57495;49.922;7.966;2024-02-21T03:44:47;100577.66;;;6.83;100.00
70133;BME280;57495;49.922;7.966;2024-02-21T03:46:49;100582.06;;;6.84;100.00
70133;BME280;57495;49.922;7.966;2024-02-21T03:48:50;100577.56;;;6.84;100.00
70133;BME280;57495;49.922;7.966;2024-02-21T03:50:52;100580.34;;;6.83;100.00
70133;BME280;57495;49.922;7.966;2024-02-21T03:52:53;100577.81;;;6.81;100.00
70133;BME280;57495;49.922;7.966;2024-02-21T03:54:55;100574.69;;;6.74;100.00
70133;BME280;57495;49.922;7.966;2024-02-21T03:56:56;100569.06;;;6.79;100.00
70133;BME280;57495;49.922;7.966;2024-02-21T03:58:57;100567.03;;;6.83;100.00
70133;BME280;57495;49.922;7.966;2024-02-21T04:01:01;100560.97;;;6.81;100.00
70133;BME280;57495;49.922;7.966;2024-02-21T04:03:03;100552.47;;;6.88;100.00
70133;BME280;57495;49.922;7.966;2024-02-21T04:05:05;100536.31;;;6.78;100.00
70133;BME280;57495;49.922;7.966;2024-02-21T04:07:11;100530.47;;;6.73;100.00
70133;BME280;57495;49.922;7.966;2024-02-21T04:09:12;100538.44;;;6.73;100.00
70133;BME280;57495;49.922;7.966;2024-02-21T04:11:12;100531.19;;;6.75;100.00
70133;BME280;57495;49.922;7.966;2024-02-21T04:13:14;100537.69;;;6.71;100.00
70133;BME280;57495;49.922;7.966;2024-02-21T04:15:15;100536.00;;;6.70;100.00
70133;BME280;57495;49.922;7.966;2024-02-21T04:17:18;100538.56;;;6.72;100.00
70133;BME280;57495;49.922;7.966;2024-02-21T04:19:19;100541.41;;;6.69;100.00
70133;BME280;57495;49.922;7.966;2024-02-21T04:21:20;100531.22;;;6.63;100.00
70133;BME280;57495;49.922;7.966;2024-02-21T04:23:21;100535.66;;;6.62;100.00
70133;BME280;57495;49.922;7.966;2024-02-21T04:25:23;100526.00;;;6.61;100.00
70133;BME280;57495;49.922;7.966;2024-02-21T04:27:24;100522.34;;;6.49;100.00
70133;BME280;57495;49.922;7.966;2024-02-21T04:29:25;100523.97;;;6.52;100.00
70133;BME280;57495;49.922;7.966;2024-02-21T04:31:28;100516.56;;;6.57;100.00
70133;BME280;57495;49.922;7.966;2024-02-21T04:33:31;100512.47;;;6.51;100.00
70133;BME280;57495;49.922;7.966;2024-02-21T04:35:32;100504.84;;;6.47;100.00
70133;BME280;57495;49.922;7.966;2024-02-21T04:37:34;100496.31;;;6.42;100.00
70133;BME280;57495;49.922;7.966;2024-02-21T04:39:35;100490.78;;;6.32;100.00
70133;BME280;57495;49.922;7.966;2024-02-21T04:41:36;100488.03;;;6.33;100.00
70133;BME280;57495;49.922;7.966;2024-02-21T04:43:38;100490.81;;;6.45;100.00
70133;BME280;57495;49.922;7.966;2024-02-21T04:45:39;100498.22;;;6.39;100.00
70133;BME280;57495;49.922;7.966;2024-02-21T04:47:42;100496.31;;;6.42;100.00
70133;BME280;57495;49.922;7.966;2024-02-21T04:49:46;100490.78;;;6.32;100.00
70133;BME280;57495;49.922;7.966;2024-02-21T04:51:47;100492.59;;;6.31;100.00
70133;BME280;57495;49.922;7.966;2024-02-21T04:53:48;100493.97;;;6.24;100.00
70133;BME280;57495;49.922;7.966;2024-02-21T04:55:50;100493.94;;;6.11;100.00
70133;BME280;57495;49.922;7.966;2024-02-21T04:57:51;100489.19;;;6.16;100.00
70133;BME280;57495;49.922;7.966;2024-02-21T04:59:52;100483.97;;;6.15;100.00
70133;BME280;57495;49.922;7.966;2024-02-21T05:01:54;100497.78;;;6.20;100.00
70133;BME280;57495;49.922;7.966;2024-02-21T05:03:55;100504.13;;;6.17;100.00
70133;BME280;57495;49.922;7.966;2024-02-21T05:05:58;100504.75;;;6.08;100.00
70133;BME280;57495;49.922;7.966;2024-02-21T05:08:00;100503.50;;;6.14;100.00
70133;BME280;57495;49.922;7.966;2024-02-21T05:10:01;100512.44;;;6.13;100.00
70133;BME280;57495;49.922;7.966;2024-02-21T05:12:03;100499.06;;;6.27;100.00
70133;BME280;57495;49.922;7.966;2024-02-21T05:14:05;100503.63;;;6.25;100.00
70133;BME280;57495;49.922;7.966;2024-02-21T05:16:06;100503.97;;;6.33;100.00
70133;BME280;57495;49.922;7.966;2024-02-21T05:18:07;100498.84;;;6.30;100.00
70133;BME280;57495;49.922;7.966;2024-02-21T05:20:09;100497.38;;;6.26;100.00
70133;BME280;57495;49.922;7.966;2024-02-21T05:22:12;100499.28;;;6.24;100.00
70133;BME280;57495;49.922;7.966;2024-02-21T05:24:12;100502.47;;;6.29;100.00
70133;BME280;57495;49.922;7.966;2024-02-21T05:26:20;100490.78;;;6.32;100.00
70133;BME280;57495;49.922;7.966;2024-02-21T05:28:21;100481.84;;;6.33;100.00
70133;BME280;57495;49.922;7.966;2024-02-21T05:30:23;100487.69;;;6.25;100.00
70133;BME280;57495;49.922;7.966;2024-02-21T05:32:25;100487.78;;;6.24;100.00
70133;BME280;57495;49.922;7.966;2024-02-21T05:34:26;100469.63;;;6.30;100.00
70133;BME280;57495;49.922;7.966;2024-02-21T05:36:27;100465.94;;;6.20;100.00
70133;BME280;57495;49.922;7.966;2024-02-21T05:38:30;100470.69;;;6.15;100.00
70133;BME280;57495;49.922;7.966;2024-02-21T05:40:31;100469.41;;;6.08;100.00
70133;BME280;57495;49.922;7.966;2024-02-21T05:42:33;100472.66;;;5.98;100.00
70133;BME280;57495;49.922;7.966;2024-02-21T05:44:34;100475.88;;;6.04;100.00
70133;BME280;57495;49.922;7.966;2024-02-21T05:46:36;100472.25;;;6.05;100.00
70133;BME280;57495;49.922;7.966;2024-02-21T05:48:37;100474.59;;;6.09;100.00
70133;BME280;57495;49.922;7.966;2024-02-21T05:50:39;100475.53;;;6.08;100.00
70133;BME280;57495;49.922;7.966;2024-02-21T05:52:40;100471.84;;;6.11;100.00
70133;BME280;57495;49.922;7.966;2024-02-21T05:54:43;100468.84;;;6.03;100.00
70133;BME280;57495;49.922;7.966;2024-02-21T05:56:45;100466.38;;;5.99;100.00
70133;BME280;57495;49.922;7.966;2024-02-21T05:58:47;100469.03;;;5.99;100.00
70133;BME280;57495;49.922;7.966;2024-02-21T06:00:48;100464.69;;;5.98;100.00
70133;BME280;57495;49.922;7.966;2024-02-21T06:02:49;100464.69;;;5.98;100.00
70133;BME280;57495;49.922;7.966;2024-02-21T06:04:51;100466.78;;;5.93;100.00
70133;BME280;57495;49.922;7.966;2024-02-21T06:06:52;100456.94;;;5.95;100.00
70133;BME280;57495;49.922;7.966;2024-02-21T06:08:54;100451.34;;;5.86;100.00
70133;BME280;57495;49.922;7.966;2024-02-21T06:10:57;100445.38;;;5.96;100.00
70133;BME280;57495;49.922;7.966;2024-02-21T06:12:58;100452.19;;;5.86;100.00
70133;BME280;57495;49.922;7.966;2024-02-21T06:15:00;100452.91;;;5.75;100.00
70133;BME280;57495;49.922;7.966;2024-02-21T06:17:02;100452.81;;;5.77;100.00
70133;BME280;57495;49.922;7.966;2024-02-21T06:19:03;100449.53;;;5.86;100.00
70133;BME280;57495;49.922;7.966;2024-02-21T06:21:05;100438.19;;;5.84;100.00
70133;BME280;57495;49.922;7.966;2024-02-21T06:23:06;100439.47;;;5.91;100.00
70133;BME280;57495;49.922;7.966;2024-02-21T06:25:08;100439.38;;;5.93;100.00
70133;BME280;57495;49.922;7.966;2024-02-21T06:27:11;100435.31;;;6.02;100.00
70133;BME280;57495;49.922;7.966;2024-02-21T06:29:14;100431.13;;;5.97;100.00
70133;BME280;57495;49.922;7.966;2024-02-21T06:31:15;100424.88;;;5.98;100.00
70133;BME280;57495;49.922;7.966;2024-02-21T06:33:17;100427.16;;;5.90;100.00
70133;BME280;57495;49.922;7.966;2024-02-21T06:35:23;100423.47;;;5.93;100.00
70133;BME280;57495;49.922;7.966;2024-02-21T06:37:25;100428.03;;;5.91;100.00
70133;BME280;57495;49.922;7.966;2024-02-21T06:39:26;100428.88;;;5.91;100.00
70133;BME280;57495;49.922;7.966;2024-02-21T06:41:29;100425.91;;;5.96;100.00
70133;BME280;57495;49.922;7.966;2024-02-21T06:43:34;100431.72;;;5.88;100.00
70133;BME280;57495;49.922;7.966;2024-02-21T06:45:35;100433.09;;;5.94;100.00
70133;BME280;57495;49.922;7.966;2024-02-21T06:47:37;100426.97;;;5.93;100.00
70133;BME280;57495;49.922;7.966;2024-02-21T06:49:38;100428.66;;;5.94;100.00
70133;BME280;57495;49.922;7.966;2024-02-21T06:51:39;100428.66;;;5.94;100.00
70133;BME280;57495;49.922;7.966;2024-02-21T06:53:40;100425.81;;;5.97;100.00
70133;BME280;57495;49.922;7.966;2024-02-21T06:55:41;100427.94;;;5.92;100.00
70133;BME280;57495;49.922;7.966;2024-02-21T06:57:43;100423.38;;;5.94;100.00
70133;BME280;57495;49.922;7.966;2024-02-21T06:59:44;100427.34;;;6.02;100.00
70133;BME280;57495;49.922;7.966;2024-02-21T07:01:47;100422.78;;;6.04;100.00
70133;BME280;57495;49.922;7.966;2024-02-21T07:03:49;100431.22;;;5.96;100.00
70133;BME280;57495;49.922;7.966;2024-02-21T07:05:49;100421.91;;;6.03;100.00
70133;BME280;57495;49.922;7.966;2024-02-21T07:07:51;100420.97;;;6.04;100.00
70133;BME280;57495;49.922;7.966;2024-02-21T07:09:52;100420.00;;;6.05;100.00
70133;BME280;57495;49.922;7.966;2024-02-21T07:11:54;100421.59;;;6.08;100.00
70133;BME280;57495;49.922;7.966;2024-02-21T07:13:56;100420.13;;;6.04;100.00
70133;BME280;57495;49.922;7.966;2024-02-21T07:15:59;100424.25;;;6.08;100.00
70133;BME280;57495;49.922;7.966;2024-02-21T07:18:01;100426.19;;;6.06;100.00
70133;BME280;57495;49.922;7.966;2024-02-21T07:20:02;100420.53;;;6.10;100.00
70133;BME280;57495;49.922;7.966;2024-02-21T07:22:04;100429.38;;;6.11;100.00
70133;BME280;57495;49.922;7.966;2024-02-21T07:24:05;100425.31;;;6.05;100.00
70133;BME280;57495;49.922;7.966;2024-02-21T07:26:07;100417.34;;;6.05;100.00
70133;BME280;57495;49.922;7.966;2024-02-21T07:28:09;100425.00;;;6.10;100.00
70133;BME280;57495;49.922;7.966;2024-02-21T07:30:11;100412.28;;;6.15;100.00
70133;BME280;57495;49.922;7.966;2024-02-21T07:32:14;100427.22;;;6.16;100.00
70133;BME280;57495;49.922;7.966;2024-02-21T07:34:15;100420.00;;;6.18;100.00
70133;BME280;57495;49.922;7.966;2024-02-21T07:36:28;100414.69;;;6.18;100.00
70133;BME280;57495;49.922;7.966;2024-02-21T07:38:30;100409.19;;;6.21;100.00
70133;BME280;57495;49.922;7.966;2024-02-21T07:40:32;100410.91;;;6.22;100.00
70133;BME280;57495;49.922;7.966;2024-02-21T07:42:34;100410.66;;;6.25;100.00
70133;BME280;57495;49.922;7.966;2024-02-21T07:44:35;100404.97;;;6.31;100.00
70133;BME280;57495;49.922;7.966;2024-02-21T07:46:37;100399.84;;;6.28;100.00
70133;BME280;57495;49.922;7.966;2024-02-21T07:48:38;100400.94;;;6.38;100.00
70133;BME280;57495;49.922;7.966;2024-02-21T07:50:40;100403.25;;;6.43;100.00
70133;BME280;57495;49.922;7.966;2024-02-21T07:52:41;100398.03;;;6.42;100.00
70133;BME280;57495;49.922;7.966;2024-02-21T07:54:43;100394.44;;;6.43;100.00
70133;BME280;57495;49.922;7.966;2024-02-21T07:56:44;100391.25;;;6.37;100.00
70133;BME280;57495;49.922;7.966;2024-02-21T07:58:46;100397.09;;;6.43;100.00
70133;BME280;57495;49.922;7.966;2024-02-21T08:00:47;100396.34;;;6.41;100.00
70133;BME280;57495;49.922;7.966;2024-02-21T08:02:49;100391.03;;;6.41;100.00
70133;BME280;57495;49.922;7.966;2024-02-21T08:04:51;100380.72;;;6.49;100.00
70133;BME280;57495;49.922;7.966;2024-02-21T08:06:53;100388.16;;;6.44;100.00
70133;BME280;57495;49.922;7.966;2024-02-21T08:08:55;100383.28;;;6.50;100.00
70133;BME280;57495;49.922;7.966;2024-02-21T08:10:57;100378.16;;;6.47;100.00
70133;BME280;57495;49.922;7.966;2024-02-21T08:12:58;100375.19;;;6.52;100.00
70133;BME280;57495;49.922;7.966;2024-02-21T08:15:00;100370.09;;;6.49;100.00
70133;BME280;57495;49.922;7.966;2024-02-21T08:17:01;100379.63;;;6.51;100.00
70133;BME280;57495;49.922;7.966;2024-02-21T08:19:03;100366.88;;;6.56;100.00
70133;BME280;57495;49.922;7.966;2024-02-21T08:21:06;100359.56;;;6.60;100.00
70133;BME280;57495;49.922;7.966;2024-02-21T08:23:07;100369.44;;;6.58;100.00
70133;BME280;57495;49.922;7.966;2024-02-21T08:25:09;100364.13;;;6.58;100.00
70133;BME280;57495;49.922;7.966;2024-02-21T08:27:09;100356.59;;;6.65;100.00
70133;BME280;57495;49.922;7.966;2024-02-21T08:29:11;100374.94;;;6.68;100.00
70133;BME280;57495;49.922;7.966;2024-02-21T08:31:18;100358.91;;;6.69;100.00
70133;BME280;57495;49.922;7.966;2024-02-21T08:33:20;100368.34;;;6.73;100.00
70133;BME280;57495;49.922;7.966;2024-02-21T08:35:24;100365.25;;;6.80;100.00
70133;BME280;57495;49.922;7.966;2024-02-21T08:37:28;100369.41;;;6.84;100.00
70133;BME280;57495;49.922;7.966;2024-02-21T08:39:30;100369.06;;;6.88;100.00
70133;BME280;57495;49.922;7.966;2024-02-21T08:41:32;100373.06;;;6.94;100.00
70133;BME280;57495;49.922;7.966;2024-02-21T08:43:32;100364.88;;;6.97;100.00
70133;BME280;57495;49.922;7.966;2024-02-21T08:45:36;100369.53;;;7.06;100.00
70133;BME280;57495;49.922;7.966;2024-02-21T08:47:39;100359.53;;;7.10;100.00
70133;BME280;57495;49.922;7.966;2024-02-21T08:49:41;100357.03;;;7.20;100.00
70133;BME280;57495;49.922;7.966;2024-02-21T08:51:43;100343.06;;;7.29;100.00
70133;BME280;57495;49.922;7.966;2024-02-21T08:53:46;100346.44;;;7.31;100.00
70133;BME280;57495;49.922;7.966;2024-02-21T08:55:48;100341.13;;;7.31;100.00
70133;BME280;57495;49.922;7.966;2024-02-21T08:57:49;100330.28;;;7.34;100.00
70133;BME280;57495;49.922;7.966;2024-02-21T08:59:51;100328.22;;;7.38;100.00
70133;BME280;57495;49.922;7.966;2024-02-21T09:01:52;100338.75;;;7.39;100.00
70133;BME280;57495;49.922;7.966;2024-02-21T09:03:54;100331.34;;;7.55;100.00
70133;BME280;57495;49.922;7.966;2024-02-21T09:05:56;100337.56;;;7.43;100.00
70133;BME280;57495;49.922;7.966;2024-02-21T09:07:58;100330.69;;;7.41;100.00
70133;BME280;57495;49.922;7.966;2024-02-21T09:10:01;100324.72;;;7.37;100.00
70133;BME280;57495;49.922;7.966;2024-02-21T09:12:04;100325.09;;;7.44;100.00
70133;BME280;57495;49.922;7.966;2024-02-21T09:14:06;100322.72;;;7.52;100.00
70133;BME280;57495;49.922;7.966;2024-02-21T09:16:08;100318.97;;;7.54;100.00
70133;BME280;57495;49.922;7.966;2024-02-21T09:18:10;100312.84;;;7.65;100.00
70133;BME280;57495;49.922;7.966;2024-02-21T09:20:12;100312.53;;;7.81;100.00
70133;BME280;57495;49.922;7.966;2024-02-21T09:22:16;100315.22;;;7.92;100.00
70133;BME280;57495;49.922;7.966;2024-02-21T09:24:18;100313.63;;;7.90;100.00
70133;BME280;57495;49.922;7.966;2024-02-21T09:26:20;100302.63;;;7.94;100.00
70133;BME280;57495;49.922;7.966;2024-02-21T09:28:22;100306.25;;;7.93;100.00
70133;BME280;57495;49.922;7.966;2024-02-21T09:30:24;100312.28;;;7.96;100.00
70133;BME280;57495;49.922;7.966;2024-02-21T09:32:25;100305.03;;;7.98;100.00
70133;BME280;57495;49.922;7.966;2024-02-21T09:34:27;100308.19;;;8.03;100.00
70133;BME280;57495;49.922;7.966;2024-02-21T09:36:28;100300.69;;;7.97;100.00
70133;BME280;57495;49.922;7.966;2024-02-21T09:38:30;100298.97;;;7.96;100.00
70133;BME280;57495;49.922;7.966;2024-02-21T09:40:31;100288.84;;;8.12;100.00
70133;BME280;57495;49.922;7.966;2024-02-21T09:42:37;100288.00;;;8.00;100.00
70133;BME280;57495;49.922;7.966;2024-02-21T09:44:39;100282.56;;;8.13;100.00
70133;BME280;57495;49.922;7.966;2024-02-21T09:46:49;100280.34;;;8.07;100.00
70133;BME280;57495;49.922;7.966;2024-02-21T09:49:12;100275.03;;;8.07;100.00
70133;BME280;57495;49.922;7.966;2024-02-21T09:51:18;100266.34;;;8.27;100.00
70133;BME280;57495;49.922;7.966;2024-02-21T09:53:19;100278.06;;;8.25;100.00
70133;BME280;57495;49.922;7.966;2024-02-21T09:55:22;100265.47;;;8.27;100.00
70133;BME280;57495;49.922;7.966;2024-02-21T09:57:24;100268.84;;;8.29;100.00
70133;BME280;57495;49.922;7.966;2024-02-21T09:59:28;100271.41;;;8.30;100.00
70133;BME280;57495;49.922;7.966;2024-02-21T10:01:31;100267.78;;;8.31;100.00
70133;BME280;57495;49.922;7.966;2024-02-21T10:03:33;100267.06;;;8.52;100.00
70133;BME280;57495;49.922;7.966;2024-02-21T10:05:34;100262.94;;;8.48;100.00
70133;BME280;57495;49.922;7.966;2024-02-21T10:07:38;100262.78;;;8.38;100.00
70133;BME280;57495;49.922;7.966;2024-02-21T10:09:39;100259.91;;;8.52;100.00
70133;BME280;57495;49.922;7.966;2024-02-21T10:11:42;100255.41;;;8.53;100.00
70133;BME280;57495;49.922;7.966;2024-02-21T10:13:43;100249.75;;;8.46;100.00
70133;BME280;57495;49.922;7.966;2024-02-21T10:15:46;100251.56;;;8.57;100.00
70133;BME280;57495;49.922;7.966;2024-02-21T10:17:58;100244.28;;;8.59;100.00
70133;BME280;57495;49.922;7.966;2024-02-21T10:20:07;100243.19;;;8.50;100.00
70133;BME280;57495;49.922;7.966;2024-02-21T10:22:09;100252.75;;;8.42;100.00
70133;BME280;57495;49.922;7.966;2024-02-21T10:24:11;100243.19;;;8.50;100.00
70133;BME280;57495;49.922;7.966;2024-02-21T10:26:14;100239.69;;;8.50;100.00
70133;BME280;57495;49.922;7.966;2024-02-21T10:28:16;100235.69;;;8.44;100.00
70133;BME280;57495;49.922;7.966;2024-02-21T10:30:19;100223.69;;;8.50;100.00
70133;BME280;57495;49.922;7.966;2024-02-21T10:32:22;100225.13;;;8.54;100.00
70133;BME280;57495;49.922;7.966;2024-02-21T10:34:25;100219.81;;;8.54;100.00
70133;BME280;57495;49.922;7.966;2024-02-21T10:36:27;100219.81;;;8.54;100.00
70133;BME280;57495;49.922;7.966;2024-02-21T10:38:28;100217.34;;;8.62;100.00